Time;durP1;ratioP1;P1;durP2;ratioP2;P2;SDS_P1;SDS_P2;PMS_P1;PMS_P2;Temp;Humidity;BMP_temperature;BMP_pressure;BME280_temperature;BME280_humidity;BME280_pressure;Samples;Min_cycle;Max_cycle;Signal;HPM_P1;HPM_P2
2023/10/10 00:00:48;;;;;;;10.13;4.40;;;;;;;13.63;100.00;101017.81;4963016;28;20208;-73
2023/10/10 00:03:17;;;;;;;7.03;3.83;;;;;;;13.70;100.00;101015.22;4964034;28;20288;-70
2023/10/10 00:05:44;;;;;;;8.67;4.00;;;;;;;13.82;100.00;101009.13;4966968;28;20260;-74
2023/10/10 00:08:11;;;;;;;7.50;4.17;;;;;;;14.06;100.00;101028.00;4968337;28;20643;-71
2023/10/10 00:10:50;;;;;;;8.60;3.97;;;;;;;14.25;100.00;101029.06;4968393;28;20209;-71
2023/10/10 00:13:17;;;;;;;10.50;3.93;;;;;;;14.22;100.00;101025.47;4961409;28;20212;-71
2023/10/10 00:15:51;;;;;;;10.83;4.03;;;;;;;14.13;100.00;101028.06;4967193;28;20206;-72
2023/10/10 00:18:19;;;;;;;11.57;4.10;;;;;;;14.08;100.00;101028.03;4964506;28;20217;-71
2023/10/10 00:21:04;;;;;;;7.53;4.40;;;;;;;13.87;100.00;101023.38;4961064;28;20741;-71
2023/10/10 00:23:34;;;;;;;9.33;3.83;;;;;;;13.75;100.00;101013.50;4968151;28;20229;-72
2023/10/10 00:26:01;;;;;;;8.90;4.33;;;;;;;13.59;100.00;101019.50;4960386;28;20618;-72
2023/10/10 00:28:33;;;;;;;8.90;4.20;;;;;;;13.40;100.00;101018.41;4963978;28;20204;-71
2023/10/10 00:31:03;;;;;;;7.10;3.80;;;;;;;13.24;100.00;101018.22;4965030;28;20204;-71
2023/10/10 00:33:31;;;;;;;9.20;3.83;;;;;;;13.08;100.00;101025.06;4966402;28;20225;-72
2023/10/10 00:35:59;;;;;;;10.20;4.00;;;;;;;12.96;100.00;101024.91;4961682;28;20202;-73
2023/10/10 00:38:29;;;;;;;7.40;4.00;;;;;;;12.76;100.00;101003.34;4968176;28;20221;-73
2023/10/10 00:40:57;;;;;;;8.17;4.07;;;;;;;12.77;100.00;101019.31;4965687;28;20575;-71
2023/10/10 00:43:24;;;;;;;8.87;4.07;;;;;;;12.71;100.00;101024.53;4967751;28;20320;-72
2023/10/10 00:45:57;;;;;;;9.27;4.10;;;;;;;12.65;100.00;101021.78;4959306;28;20202;-73
2023/10/10 00:48:29;;;;;;;7.40;4.27;;;;;;;12.55;100.00;101028.72;4967206;28;20693;-71
2023/10/10 00:51:05;;;;;;;6.90;3.40;;;;;;;12.51;100.00;101020.69;4964301;28;20202;-73
2023/10/10 00:53:34;;;;;;;8.30;4.27;;;;;;;12.46;100.00;101025.03;4967620;28;20330;-72
2023/10/10 00:56:05;;;;;;;6.43;3.60;;;;;;;12.38;100.00;101022.25;4965097;28;20375;-71
2023/10/10 00:58:37;;;;;;;9.70;4.40;;;;;;;12.31;100.00;101023.00;4966029;28;20725;-71
2023/10/10 01:01:10;;;;;;;7.40;4.10;;;;;;;12.31;100.00;101024.78;4964831;28;20202;-71
2023/10/10 01:03:40;;;;;;;8.20;3.83;;;;;;;12.27;100.00;101025.59;4965557;28;20874;-71
2023/10/10 01:06:20;;;;;;;7.00;4.20;;;;;;;12.32;100.00;101016.84;4966215;28;20224;-68
2023/10/10 01:09:03;;;;;;;7.83;4.47;;;;;;;12.31;100.00;101016.81;4959621;28;20575;-70
2023/10/10 01:11:30;;;;;;;9.87;4.40;;;;;;;12.28;100.00;101022.06;4959170;28;20265;-72
2023/10/10 01:13:56;;;;;;;7.23;4.00;;;;;;;12.21;100.00;101023.75;4965052;28;20221;-71
2023/10/10 01:16:24;;;;;;;7.73;3.67;;;;;;;12.13;100.00;101012.09;4963470;28;20198;-74
2023/10/10 01:18:56;;;;;;;7.53;4.23;;;;;;;12.05;100.00;101013.75;4962196;28;20434;-72
2023/10/10 01:21:32;;;;;;;7.47;4.27;;;;;;;11.99;100.00;101014.50;4963689;28;20297;-71
2023/10/10 01:24:01;;;;;;;7.40;4.10;;;;;;;11.99;100.00;101010.94;4967062;28;20225;-72
2023/10/10 01:26:43;;;;;;;7.47;4.30;;;;;;;11.93;100.00;101014.38;4971123;28;20198;-71
2023/10/10 01:29:25;;;;;;;8.27;3.97;;;;;;;11.84;100.00;101001.84;4968147;28;20201;-71
2023/10/10 01:31:53;;;;;;;10.10;4.13;;;;;;;11.75;100.00;101006.06;4967268;28;20208;-72
2023/10/10 01:37:22;;;;;;;6.43;3.80;;;;;;;11.78;100.00;101006.16;4963596;28;20208;-70
2023/10/10 01:40:16;;;;;;;9.47;4.20;;;;;;;11.80;100.00;101007.09;4960671;28;20221;-74
2023/10/10 01:42:53;;;;;;;9.87;4.13;;;;;;;11.90;100.00;101009.91;4962539;28;20222;-75
2023/10/10 01:45:21;;;;;;;6.40;4.07;;;;;;;11.87;100.00;100996.59;4967364;28;20232;-70
2023/10/10 01:47:56;;;;;;;7.50;3.70;;;;;;;11.89;100.00;100991.31;4959355;28;20221;-72
2023/10/10 01:50:32;;;;;;;10.87;4.00;;;;;;;11.84;100.00;100999.19;4968868;28;20211;-72
2023/10/10 01:53:05;;;;;;;9.83;4.50;;;;;;;11.82;100.00;100992.09;4967067;28;20374;-71
2023/10/10 01:55:32;;;;;;;8.20;4.20;;;;;;;11.83;100.00;100994.75;4971081;28;20208;-73
2023/10/10 01:58:01;;;;;;;8.60;4.90;;;;;;;11.85;100.00;100995.69;4967074;28;20256;-72
2023/10/10 02:00:34;;;;;;;8.07;4.50;;;;;;;11.72;100.00;100979.50;4968823;28;20332;-72
2023/10/10 02:03:01;;;;;;;10.10;4.53;;;;;;;11.75;100.00;100987.50;4968214;28;20234;-72
2023/10/10 02:08:09;;;;;;;7.57;4.20;;;;;;;11.61;100.00;100987.25;4959976;28;20197;-72
2023/10/10 02:10:36;;;;;;;7.33;4.20;;;;;;;11.62;100.00;100989.03;4956936;28;20231;-71
2023/10/10 02:13:07;;;;;;;7.80;4.03;;;;;;;11.53;100.00;100991.50;4962875;28;20759;-71
2023/10/10 02:15:35;;;;;;;7.23;4.00;;;;;;;11.49;100.00;101000.25;4968086;28;20219;-70
2023/10/10 02:18:06;;;;;;;9.37;4.57;;;;;;;11.40;100.00;100987.72;4971556;28;20252;-68
2023/10/10 02:20:49;;;;;;;8.37;4.20;;;;;;;11.40;100.00;100987.72;4963289;28;20289;-71
2023/10/10 02:23:32;;;;;;;8.27;4.60;;;;;;;11.42;100.00;100988.66;4969140;28;20228;-72
2023/10/10 02:26:14;;;;;;;14.87;4.87;;;;;;;11.46;100.00;100992.25;4970091;28;20198;-73
2023/10/10 02:31:13;;;;;;;10.93;4.47;;;;;;;11.41;100.00;100988.63;4970817;28;20205;-74
2023/10/10 02:33:48;;;;;;;8.87;4.50;;;;;;;11.42;100.00;100979.78;4962935;28;20221;-70
2023/10/10 02:36:30;;;;;;;6.73;4.37;;;;;;;11.36;100.00;100988.53;4962952;28;20212;-73
2023/10/10 02:39:18;;;;;;;8.73;4.23;;;;;;;11.32;100.00;100984.03;4965609;28;20631;-72
2023/10/10 02:41:49;;;;;;;10.67;4.30;;;;;;;11.42;100.00;100983.34;4966416;28;20209;-71
2023/10/10 02:47:00;;;;;;;8.87;3.97;;;;;;;11.30;100.00;100996.38;4962987;28;20211;-71
2023/10/10 02:51:57;;;;;;;9.47;4.30;;;;;;;11.09;100.00;100988.84;4970475;28;20589;-71
2023/10/10 02:54:32;;;;;;;9.17;3.67;;;;;;;11.01;100.00;100993.09;4964905;28;20796;-72
2023/10/10 02:57:26;;;;;;;7.37;3.97;;;;;;;11.07;100.00;100997.63;4969802;28;20345;-70
2023/10/10 02:59:50;;;;;;;8.10;4.00;;;;;;;11.10;100.00;100995.06;4969158;28;20235;-71
2023/10/10 03:02:28;;;;;;;9.33;4.20;;;;;;;11.02;100.00;100994.00;4967049;28;20590;-71
2023/10/10 03:07:30;;;;;;;7.27;4.23;;;;;;;10.87;100.00;100981.31;4967028;28;20673;-72
2023/10/10 03:12:49;;;;;;;9.83;4.33;;;;;;;10.81;100.00;101000.66;4968017;28;20612;-72
2023/10/10 03:26:05;;;;;;;7.07;4.07;;;;;;;11.01;100.00;101001.06;4965626;28;20299;-73
2023/10/10 03:28:41;;;;;;;8.53;4.57;;;;;;;10.99;100.00;100994.84;4965809;28;20195;-72
2023/10/10 05:23:30;;;;;;;11.17;5.60;;;;;;;10.55;100.00;100993.84;4983175;28;20732;-70
2023/10/10 05:25:59;;;;;;;10.83;4.90;;;;;;;10.61;100.00;100994.88;4990826;28;20201;-70
2023/10/10 05:28:30;;;;;;;8.30;5.13;;;;;;;10.48;100.00;100994.56;4982871;28;20276;-70
2023/10/10 05:30:57;;;;;;;9.50;5.20;;;;;;;10.40;100.00;100994.38;4987849;28;20268;-70
2023/10/10 05:33:26;;;;;;;10.37;5.50;;;;;;;10.41;100.00;100993.53;4983418;28;20240;-70
2023/10/10 05:36:00;;;;;;;13.03;5.77;;;;;;;10.39;100.00;100994.31;4989159;28;20197;-70
2023/10/10 05:38:26;;;;;;;10.40;5.40;;;;;;;10.37;100.00;100989.00;4987096;28;20214;-70
2023/10/10 05:40:53;;;;;;;12.57;6.10;;;;;;;10.47;100.00;100988.38;4984557;28;20581;-70
2023/10/10 05:43:26;;;;;;;12.30;5.73;;;;;;;10.53;100.00;100991.16;4983752;28;20237;-70
2023/10/10 05:45:56;;;;;;;11.97;5.50;;;;;;;10.58;100.00;100989.50;4983311;28;20452;-69
2023/10/10 05:48:23;;;;;;;11.33;5.43;;;;;;;10.57;100.00;100986.84;4986603;28;20322;-70
2023/10/10 05:50:50;;;;;;;10.07;4.97;;;;;;;10.56;100.00;100995.63;4980047;28;20206;-70
2023/10/10 05:53:16;;;;;;;9.53;5.23;;;;;;;10.56;100.00;100993.88;4981557;28;20309;-70
2023/10/10 05:55:44;;;;;;;11.60;5.33;;;;;;;10.57;100.00;100993.03;4987432;28;20285;-73
2023/10/10 05:58:12;;;;;;;9.83;5.33;;;;;;;10.58;100.00;101000.09;4985722;28;20240;-73
2023/10/10 06:00:41;;;;;;;14.40;5.70;;;;;;;10.59;100.00;101004.53;4980308;28;20227;-70
2023/10/10 06:03:08;;;;;;;11.77;5.47;;;;;;;10.68;100.00;101006.50;4982064;28;20226;-71
2023/10/10 06:05:35;;;;;;;12.00;5.47;;;;;;;10.75;100.00;101003.13;4990968;28;20206;-72
2023/10/10 06:08:02;;;;;;;11.60;4.93;;;;;;;10.79;100.00;101004.09;4990831;28;20208;-71
2023/10/10 06:10:32;;;;;;;9.37;5.17;;;;;;;10.79;100.00;101004.09;4987805;28;20206;-71
2023/10/10 06:13:03;;;;;;;11.63;5.37;;;;;;;10.80;100.00;101008.53;4985323;28;20226;-72
2023/10/10 06:15:34;;;;;;;10.73;5.20;;;;;;;10.96;100.00;101014.22;4988347;28;20207;-71
2023/10/10 06:18:13;;;;;;;14.63;5.20;;;;;;;11.01;100.00;101019.63;4983772;28;20269;-71
2023/10/10 06:20:41;;;;;;;12.27;5.00;;;;;;;11.06;100.00;101012.66;4987446;28;20704;-71
2023/10/10 06:23:28;;;;;;;11.60;5.43;;;;;;;11.16;100.00;101014.63;4988453;28;20582;-71
2023/10/10 06:25:58;;;;;;;11.37;5.00;;;;;;;11.23;100.00;101020.97;4989349;28;20503;-72
2023/10/10 06:28:29;;;;;;;11.33;5.57;;;;;;;11.28;100.00;101019.31;4983347;28;20211;-73
2023/10/10 06:30:59;;;;;;;11.30;5.40;;;;;;;11.30;100.00;101023.78;4982584;28;20211;-73
2023/10/10 06:33:29;;;;;;;9.70;5.10;;;;;;;11.34;100.00;101027.38;4983274;28;20314;-74
2023/10/10 06:36:32;;;;;;;11.73;5.27;;;;;;;11.37;100.00;101024.78;4988402;28;20265;-74
2023/10/10 06:41:38;;;;;;;12.63;6.30;;;;;;;11.46;100.00;101021.44;4983474;28;20213;-75
2023/10/10 06:44:12;;;;;;;11.60;5.50;;;;;;;11.52;100.00;101017.13;4987167;28;20254;-79
2023/10/10 06:46:48;;;;;;;11.33;5.87;;;;;;;11.60;100.00;101019.94;4989002;28;20207;-79
2023/10/10 06:49:15;;;;;;;10.37;5.37;;;;;;;11.74;100.00;101022.88;4986268;28;20758;-81
2023/10/10 06:51:42;;;;;;;13.10;5.57;;;;;;;11.88;100.00;101026.69;4985166;28;20197;-83
2023/10/10 06:54:19;;;;;;;11.17;5.97;;;;;;;12.04;100.00;101019.91;4988415;28;20721;-81
2023/10/10 06:59:28;;;;;;;11.13;6.07;;;;;;;12.45;100.00;101013.53;4989596;28;20792;-79
2023/10/10 07:02:00;;;;;;;11.27;5.40;;;;;;;12.66;100.00;101020.91;4983599;28;20205;-77
2023/10/10 07:04:27;;;;;;;11.53;5.80;;;;;;;12.85;100.00;101030.97;4986819;28;20247;-76
2023/10/10 07:07:00;;;;;;;12.93;5.60;;;;;;;12.98;100.00;101026.69;4985061;28;20260;-76
2023/10/10 07:09:29;;;;;;;10.57;5.03;;;;;;;13.10;100.00;101021.53;4984777;28;20650;-75
2023/10/10 07:12:09;;;;;;;8.97;4.90;;;;;;;13.21;100.00;101018.16;4982203;28;20826;-72
2023/10/10 07:14:40;;;;;;;10.73;4.87;;;;;;;13.21;100.00;101013.75;4985799;28;20216;-73
2023/10/10 07:17:13;;;;;;;9.10;5.20;;;;;;;13.28;100.00;101020.94;4990124;28;20671;-77
2023/10/10 07:22:35;;;;;;;8.57;4.87;;;;;;;13.40;100.00;101030.81;4988622;28;20224;-77
2023/10/10 07:28:05;;;;;;;11.83;5.23;;;;;;;13.44;100.00;101022.00;4964067;28;20197;-74
2023/10/10 07:30:34;;;;;;;11.50;5.97;;;;;;;13.53;100.00;101019.44;4978452;28;20599;-73
2023/10/10 07:33:03;;;;;;;11.60;5.70;;;;;;;13.61;100.00;101016.88;4989856;28;20256;-75
2023/10/10 07:35:35;;;;;;;8.73;5.23;;;;;;;13.68;100.00;101014.31;4986470;28;20227;-72
2023/10/10 07:38:02;;;;;;;11.33;6.90;;;;;;;13.74;100.00;101019.69;4986655;28;20223;-78
2023/10/10 07:40:30;;;;;;;13.33;6.43;;;;;;;13.75;100.00;101024.16;4987541;28;20244;-74
2023/10/10 07:43:03;;;;;;;15.80;6.07;;;;;;;13.78;100.00;101026.84;4982986;28;20231;-74
2023/10/10 07:46:18;;;;;;;13.03;5.90;;;;;;;13.76;100.00;101027.69;4982329;28;20638;-74
2023/10/10 07:51:06;;;;;;;12.47;5.20;;;;;;;13.89;100.00;101032.25;4987154;28;20292;-74
2023/10/10 07:53:41;;;;;;;10.03;5.20;;;;;;;14.07;100.00;101029.78;4983825;28;20311;-75
2023/10/10 07:56:07;;;;;;;10.77;5.20;;;;;;;14.06;100.00;101027.13;4988919;28;20207;-75
2023/10/10 07:58:43;;;;;;;10.53;5.70;;;;;;;14.15;100.00;101018.31;4985531;28;20626;-75
2023/10/10 08:01:19;;;;;;;9.47;5.17;;;;;;;14.27;100.00;101024.63;4983636;28;20315;-73
2023/10/10 08:03:47;;;;;;;11.03;5.27;;;;;;;14.39;100.00;101031.81;4988343;28;20225;-74
2023/10/10 08:06:21;;;;;;;10.47;5.17;;;;;;;14.48;100.00;101039.94;4987698;28;20252;-74
2023/10/10 08:11:37;;;;;;;9.40;4.23;;;;;;;14.58;100.00;101023.13;4985304;28;20228;-75
2023/10/10 08:14:07;;;;;;;11.80;4.80;;;;;;;14.69;100.00;101032.09;4987082;28;20640;-74
2023/10/10 08:16:35;;;;;;;9.67;4.90;;;;;;;14.89;100.00;101040.25;4988310;28;20204;-75
2023/10/10 08:19:07;;;;;;;7.83;4.17;;;;;;;15.00;100.00;101026.97;4988166;28;20650;-73
2023/10/10 08:21:37;;;;;;;9.83;4.87;;;;;;;15.19;100.00;101031.50;4983431;28;20232;-74
2023/10/10 08:24:06;;;;;;;11.57;5.20;;;;;;;15.33;100.00;101023.56;4987291;28;20605;-73
2023/10/10 08:26:40;;;;;;;8.00;4.10;;;;;;;15.50;100.00;101016.50;4985147;28;20699;-73
2023/10/10 08:29:09;;;;;;;9.70;4.47;;;;;;;15.79;100.00;101016.63;4987160;28;20611;-74
2023/10/10 08:31:37;;;;;;;10.63;4.87;;;;;;;15.97;100.00;101027.34;4987259;28;20203;-74
2023/10/10 08:34:04;;;;;;;9.40;4.60;;;;;;;16.02;100.00;101019.34;4989830;28;20821;-73
2023/10/10 08:36:31;;;;;;;13.23;4.90;;;;;;;16.12;100.00;101031.84;4991466;28;20295;-73
2023/10/10 08:39:12;;;;;;;10.80;4.43;;;;;;;16.13;100.00;101022.03;4981169;28;20197;-71
2023/10/10 08:41:41;;;;;;;10.77;4.73;;;;;;;16.23;100.00;101030.06;4990881;28;20239;-72
2023/10/10 08:44:09;;;;;;;11.97;5.00;;;;;;;16.41;100.00;101031.84;4991204;28;20624;-72
2023/10/10 08:46:49;;;;;;;9.23;5.00;;;;;;;16.54;100.00;101020.25;4992368;28;20628;-73
2023/10/10 08:49:16;;;;;;;12.80;5.27;;;;;;;16.71;100.00;101027.38;4990180;28;20208;-73
2023/10/10 08:51:45;;;;;;;11.70;5.30;;;;;;;16.83;100.00;101022.03;4990505;28;20255;-73
2023/10/10 08:54:15;;;;;;;11.70;4.57;;;;;;;17.07;100.00;101019.28;4990004;28;20256;-72
2023/10/10 08:56:59;;;;;;;11.37;5.53;;;;;;;17.08;100.00;101017.50;4989827;28;20200;-73
2023/10/10 08:59:31;;;;;;;10.27;5.00;;;;;;;17.22;100.00;101019.25;4986912;28;20298;-77
2023/10/10 09:02:16;;;;;;;10.67;5.07;;;;;;;17.30;100.00;101019.22;4990247;28;20299;-71
2023/10/10 09:04:44;;;;;;;11.73;5.33;;;;;;;17.45;100.00;101023.59;4987268;28;20624;-70
2023/10/10 09:07:20;;;;;;;10.77;5.30;;;;;;;17.51;100.00;101019.09;4991781;28;20212;-70
2023/10/10 09:09:54;;;;;;;14.07;5.40;;;;;;;17.46;100.00;101012.00;4989507;28;20207;-70
2023/10/10 09:12:24;;;;;;;12.63;5.60;;;;;;;17.69;100.00;101014.59;4981162;28;20299;-71
2023/10/10 09:14:51;;;;;;;11.97;5.67;;;;;;;17.80;100.00;101013.63;4985982;28;20315;-69
2023/10/10 09:17:35;;;;;;;10.93;5.27;;;;;;;17.94;100.00;101012.63;4990941;28;20728;-71
2023/10/10 09:20:17;;;;;;;9.83;4.53;;;;;;;18.20;100.00;101016.03;4983432;28;20225;-71
2023/10/10 09:22:51;;;;;;;11.53;5.33;;;;;;;18.35;98.71;101015.88;4998122;28;20206;-70
2023/10/10 09:25:48;;;;;;;12.07;5.40;;;;;;;18.46;96.68;101024.75;4985767;28;20641;-70
2023/10/10 09:28:16;;;;;;;11.47;5.20;;;;;;;18.54;96.54;101021.13;4981849;28;20206;-70
2023/10/10 09:31:19;;;;;;;11.70;5.80;;;;;;;18.51;96.82;101019.34;4988550;28;20224;-70
2023/10/10 09:33:42;;;;;;;11.53;5.33;;;;;;;18.67;93.29;101017.44;4990906;28;20248;-71
2023/10/10 09:36:09;;;;;;;10.83;5.60;;;;;;;18.75;92.33;101015.56;4991640;28;20212;-71
2023/10/10 09:38:43;;;;;;;10.97;5.23;;;;;;;18.85;93.27;101013.69;4987638;28;20308;-70
2023/10/10 09:41:15;;;;;;;10.50;5.60;;;;;;;19.00;92.51;101022.47;4991509;28;20302;-71
2023/10/10 09:44:01;;;;;;;11.80;6.00;;;;;;;18.94;90.20;101011.78;4984927;28;20700;-70
2023/10/10 09:46:53;;;;;;;11.20;4.97;;;;;;;19.03;89.65;101010.78;4985076;28;20206;-68
2023/10/10 09:49:35;;;;;;;13.33;5.00;;;;;;;19.09;90.21;101006.25;4988819;28;20209;-69
2023/10/10 09:54:49;;;;;;;11.45;5.72;;;;;;;19.38;90.51;100996.94;4987225;28;20225;-70
2023/10/10 09:57:17;;;;;;;15.43;5.88;;;;;;;19.51;91.15;100984.22;4983791;28;20197;-70
2023/10/10 09:59:48;;;;;;;12.63;5.45;;;;;;;19.46;87.52;100989.66;4991036;28;20692;-70
2023/10/10 10:02:35;;;;;;;13.32;6.30;;;;;;;19.51;89.23;100986.91;4988116;28;20574;-71
2023/10/10 10:05:13;;;;;;;16.63;6.07;;;;;;;19.55;87.91;100989.56;4985108;28;20221;-70
2023/10/10 10:08:00;;;;;;;9.95;5.43;;;;;;;19.60;88.02;100992.19;4988003;28;20247;-71
2023/10/10 10:10:49;;;;;;;11.13;5.50;;;;;;;19.81;87.44;100993.69;4986057;28;20197;-70
2023/10/10 10:13:40;;;;;;;12.48;5.22;;;;;;;19.80;85.26;100989.22;4990180;28;20217;-70
2023/10/10 10:16:34;;;;;;;13.68;5.53;;;;;;;19.69;86.32;100995.66;4981833;28;20592;-71
2023/10/10 10:22:13;;;;;;;14.93;5.60;;;;;;;20.10;84.88;101004.03;4981972;28;20587;-70
2023/10/10 10:24:45;;;;;;;11.65;5.32;;;;;;;19.97;83.12;101005.97;5000160;28;20225;-71
2023/10/10 10:27:24;;;;;;;11.55;5.22;;;;;;;20.01;83.79;100999.66;4993429;28;20643;-70
2023/10/10 10:29:55;;;;;;;13.57;5.75;;;;;;;20.13;82.90;101001.28;4982273;28;20677;-70
2023/10/10 10:32:23;;;;;;;10.63;5.20;;;;;;;20.21;82.52;100992.16;4989056;28;20208;-71
2023/10/10 10:34:56;;;;;;;10.35;5.10;;;;;;;20.49;82.24;100995.31;4988640;28;20228;-70
2023/10/10 10:37:28;;;;;;;11.98;5.80;;;;;;;20.58;82.20;100991.56;4988102;28;20215;-70
2023/10/10 10:42:49;;;;;;;12.25;6.30;;;;;;;20.70;79.46;100994.03;4989695;28;20251;-71
2023/10/10 10:45:35;;;;;;;10.20;5.32;;;;;;;20.63;78.24;100989.69;4987494;28;20204;-70
2023/10/10 10:48:11;;;;;;;11.30;4.97;;;;;;;20.77;76.32;100995.69;4984878;28;20278;-71
2023/10/10 10:50:40;;;;;;;11.02;4.90;;;;;;;21.02;77.16;100992.53;4986761;28;20243;-70
2023/10/10 10:53:20;;;;;;;10.68;4.90;;;;;;;21.09;76.21;100989.69;4988261;28;20224;-70
2023/10/10 10:56:06;;;;;;;8.55;4.65;;;;;;;21.33;75.14;100982.06;4989365;28;20587;-71
2023/10/10 10:58:47;;;;;;;10.07;5.70;;;;;;;21.47;75.92;100980.81;4988813;28;20200;-71
2023/10/10 11:01:17;;;;;;;11.25;5.22;;;;;;;21.58;75.14;100986.84;4987226;28;20223;-71
2023/10/10 11:03:44;;;;;;;8.02;4.72;;;;;;;21.62;73.18;100981.44;4983205;28;20220;-71
2023/10/10 11:06:20;;;;;;;12.48;4.80;;;;;;;21.53;72.54;100980.69;4984932;28;20201;-70
2023/10/10 11:14:19;;;;;;;10.80;4.57;;;;;;;21.91;71.24;100968.13;4983121;28;20244;-71
2023/10/10 11:16:46;;;;;;;10.50;4.85;;;;;;;21.92;71.73;100969.03;4976328;28;20233;-71
2023/10/10 11:21:49;;;;;;;10.93;5.72;;;;;;;22.21;70.52;100958.44;4982093;28;20220;-71
2023/10/10 11:24:26;;;;;;;11.60;4.93;;;;;;;22.21;68.83;100955.75;4973816;28;20225;-71
2023/10/10 11:29:47;;;;;;;11.10;5.45;;;;;;;22.71;66.00;100959.81;4990167;28;20211;-70
2023/10/10 11:32:16;;;;;;;9.07;5.00;;;;;;;22.95;65.94;100943.88;4987117;28;20207;-71
2023/10/10 11:34:47;;;;;;;11.00;5.00;;;;;;;22.98;64.86;100949.19;4990531;28;20221;-71
2023/10/10 11:37:18;;;;;;;11.15;4.72;;;;;;;23.16;64.30;100942.34;4988184;28;20207;-71
2023/10/10 11:39:47;;;;;;;11.73;5.50;;;;;;;23.24;63.59;100945.75;4989390;28;20287;-71
2023/10/10 11:42:33;;;;;;;9.73;4.20;;;;;;;23.35;63.26;100935.47;4988580;28;20217;-71
2023/10/10 11:45:01;;;;;;;8.23;4.35;;;;;;;23.53;62.04;100936.72;4983530;28;20208;-71
2023/10/10 11:47:28;;;;;;;13.52;4.85;;;;;;;23.57;61.10;100933.91;4986534;28;20580;-71
2023/10/10 11:50:05;;;;;;;11.45;5.18;;;;;;;23.36;63.24;100926.44;4988092;28;20673;-71
2023/10/10 11:52:32;;;;;;;10.77;4.80;;;;;;;23.24;63.71;100921.41;4989348;28;20212;-71
2023/10/10 11:55:00;;;;;;;11.13;4.88;;;;;;;23.10;63.19;100919.09;4990698;28;20203;-70
2023/10/10 11:57:28;;;;;;;11.80;4.78;;;;;;;23.29;63.59;100914.06;4986126;28;20205;-71
2023/10/10 11:59:58;;;;;;;11.68;4.88;;;;;;;23.37;62.13;100917.41;4989069;28;20657;-71
2023/10/10 12:02:41;;;;;;;9.82;4.90;;;;;;;23.58;63.12;100910.44;4989977;28;20193;-71
2023/10/10 12:07:58;;;;;;;13.88;5.07;;;;;;;23.74;61.95;100903.63;4982415;28;20209;-71
2023/10/10 12:10:41;;;;;;;9.80;4.32;;;;;;;23.97;61.14;100905.56;4989077;28;20205;-71
2023/10/10 12:13:09;;;;;;;10.18;4.50;;;;;;;23.81;60.88;100901.59;4988823;28;20230;-71
2023/10/10 12:15:40;;;;;;;9.27;4.60;;;;;;;23.81;62.03;100897.09;4988163;28;20220;-70
2023/10/10 12:18:10;;;;;;;12.07;4.80;;;;;;;23.69;63.34;100892.09;4988403;28;20223;-71
2023/10/10 12:20:42;;;;;;;7.95;4.60;;;;;;;23.59;62.27;100896.00;4985402;28;20221;-71
2023/10/10 12:23:09;;;;;;;11.55;5.13;;;;;;;23.72;61.45;100887.47;4982809;28;20705;-70
2023/10/10 12:25:44;;;;;;;12.13;4.72;;;;;;;23.56;62.72;100890.69;4987414;28;20673;-71
2023/10/10 12:28:12;;;;;;;11.93;4.53;;;;;;;23.61;59.54;100888.72;4982067;28;20288;-71
2023/10/10 12:30:42;;;;;;;10.65;4.55;;;;;;;23.63;59.50;100895.00;4981106;28;20271;-71
2023/10/10 12:33:12;;;;;;;11.38;4.78;;;;;;;23.59;60.47;100886.06;4987909;28;20227;-71
2023/10/10 12:35:42;;;;;;;8.85;4.20;;;;;;;23.48;60.51;100881.91;4988927;28;20447;-71
2023/10/10 12:38:09;;;;;;;10.02;4.43;;;;;;;23.46;59.49;100873.84;4985357;28;20209;-71
2023/10/10 12:40:36;;;;;;;8.02;4.30;;;;;;;23.66;61.45;100871.44;4986937;28;20516;-71
2023/10/10 12:43:03;;;;;;;8.65;4.45;;;;;;;23.74;59.37;100866.66;4989107;28;20307;-71
2023/10/10 12:45:32;;;;;;;10.32;4.05;;;;;;;23.89;60.24;100873.34;4989182;28;20212;-71
2023/10/10 12:47:59;;;;;;;10.23;4.75;;;;;;;24.05;59.22;100871.03;4985178;28;20209;-71
2023/10/10 12:50:26;;;;;;;7.78;4.40;;;;;;;24.21;59.66;100863.25;4986696;28;20406;-71
2023/10/10 12:53:08;;;;;;;9.43;3.97;;;;;;;24.30;58.21;100865.66;4989465;28;20239;-71
2023/10/10 12:55:37;;;;;;;8.13;4.35;;;;;;;24.08;58.38;100860.09;4988863;28;20219;-71
2023/10/10 12:58:15;;;;;;;9.23;4.38;;;;;;;23.93;58.54;100861.50;4986121;28;20588;-71
2023/10/10 13:00:51;;;;;;;9.40;4.57;;;;;;;23.60;59.79;100871.59;4987950;28;20228;-71
2023/10/10 13:03:23;;;;;;;10.30;4.28;;;;;;;23.71;59.49;100863.16;4988632;28;20275;-71
2023/10/10 13:05:58;;;;;;;8.30;3.88;;;;;;;23.60;58.92;100858.09;4982046;28;20211;-71
2023/10/10 13:08:25;;;;;;;9.50;3.80;;;;;;;23.67;59.02;100856.09;4984727;28;20215;-71
2023/10/10 13:10:55;;;;;;;6.18;3.70;;;;;;;23.84;60.30;100847.41;4989254;28;20212;-71
2023/10/10 13:13:26;;;;;;;9.18;4.13;;;;;;;23.98;58.75;100843.28;4988808;28;20248;-71
2023/10/10 13:16:07;;;;;;;8.05;4.00;;;;;;;23.88;58.21;100839.13;4982091;28;20201;-71
2023/10/10 13:18:35;;;;;;;7.15;3.90;;;;;;;24.00;58.40;100833.28;4987744;28;20208;-71
2023/10/10 13:21:03;;;;;;;8.00;4.25;;;;;;;23.69;59.07;100836.16;4992579;28;20312;-71
2023/10/10 13:23:30;;;;;;;8.20;4.30;;;;;;;23.58;60.14;100834.75;4992359;28;20726;-71
2023/10/10 13:25:57;;;;;;;7.60;4.13;;;;;;;23.59;61.14;100839.22;4985481;28;20677;-71
2023/10/10 13:28:23;;;;;;;7.80;4.20;;;;;;;23.40;61.97;100838.91;4992293;28;20696;-71
2023/10/10 13:30:50;;;;;;;10.85;4.03;;;;;;;23.33;61.68;100840.03;4992785;28;20233;-71
2023/10/10 13:33:17;;;;;;;6.57;3.58;;;;;;;23.31;62.52;100831.09;4992711;28;20247;-71
2023/10/10 13:35:44;;;;;;;8.45;4.53;;;;;;;23.31;62.21;100828.41;4986097;28;20209;-71
2023/10/10 13:38:11;;;;;;;7.07;3.72;;;;;;;23.31;62.78;100825.69;4992548;28;20201;-71
2023/10/10 13:40:37;;;;;;;7.90;3.45;;;;;;;23.33;63.50;100827.41;4990969;28;20209;-71
2023/10/10 13:43:08;;;;;;;7.05;4.28;;;;;;;23.35;63.12;100824.66;4990827;28;20228;-71
2023/10/10 13:45:37;;;;;;;6.70;3.70;;;;;;;23.41;61.35;100819.94;4992432;28;20205;-71
2023/10/10 13:48:08;;;;;;;11.60;4.32;;;;;;;23.50;62.59;100820.56;4987231;28;20586;-71
2023/10/10 13:50:41;;;;;;;14.15;3.70;;;;;;;23.53;62.55;100831.28;4988825;28;20695;-71
2023/10/10 13:53:13;;;;;;;9.05;3.53;;;;;;;23.61;62.17;100821.09;4973311;28;20256;-71
2023/10/10 13:55:44;;;;;;;9.40;4.03;;;;;;;23.77;61.68;100814.28;4975660;28;20224;-71
2023/10/10 13:58:13;;;;;;;7.90;3.88;;;;;;;23.85;61.29;100814.88;4986372;28;20216;-71
2023/10/10 14:00:43;;;;;;;8.38;3.85;;;;;;;23.86;60.18;100810.34;4974976;28;20728;-71
2023/10/10 14:03:14;;;;;;;7.88;3.50;;;;;;;23.99;60.03;100800.88;4981922;28;20220;-71
2023/10/10 14:06:00;;;;;;;8.63;4.13;;;;;;;24.09;58.79;100810.44;4981806;28;20205;-71
2023/10/10 14:08:27;;;;;;;10.43;4.18;;;;;;;24.15;59.67;100801.22;4973117;28;20205;-71
2023/10/10 14:10:54;;;;;;;7.47;3.85;;;;;;;24.18;58.79;100799.28;4984546;28;20288;-71
2023/10/10 14:13:21;;;;;;;6.30;3.40;;;;;;;24.32;58.31;100805.09;4982614;28;20233;-71
2023/10/10 14:15:58;;;;;;;6.93;3.55;;;;;;;24.37;56.97;100810.34;4980859;28;20201;-71
2023/10/10 14:18:26;;;;;;;7.22;3.65;;;;;;;24.47;57.46;100800.97;4977337;28;20652;-71
2023/10/10 14:20:54;;;;;;;9.77;3.92;;;;;;;24.55;57.10;100803.38;4980698;28;20208;-71
2023/10/10 14:23:25;;;;;;;9.63;4.30;;;;;;;24.57;57.00;100798.78;4981082;28;20229;-71
2023/10/10 14:25:52;;;;;;;6.82;3.85;;;;;;;24.49;57.44;100804.50;4977327;28;20205;-71
2023/10/10 14:28:19;;;;;;;8.00;3.90;;;;;;;24.52;57.29;100807.09;4973057;28;20208;-71
2023/10/10 14:30:51;;;;;;;7.00;3.75;;;;;;;24.60;56.52;100799.56;4971930;28;20204;-71
2023/10/10 14:33:22;;;;;;;8.55;4.38;;;;;;;24.63;56.30;100812.09;4973296;28;20228;-71
2023/10/10 14:35:49;;;;;;;7.97;4.28;;;;;;;24.56;56.65;100794.31;4981026;28;20209;-71
2023/10/10 14:38:16;;;;;;;10.45;3.92;;;;;;;24.65;56.73;100802.09;4979259;28;20579;-71
2023/10/10 14:40:43;;;;;;;8.75;3.80;;;;;;;24.60;56.44;100798.66;4983428;28;20217;-71